sensor_id;sensor_type;location;lat;lon;timestamp;temperature;humidity
19248;DHT22;9758;48.640;8.148;2022-11-14T00:00:39;8.90;62.90
19248;DHT22;9758;48.640;8.148;2022-11-14T00:03:07;8.90;62.90
19248;DHT22;9758;48.640;8.148;2022-11-14T00:05:38;8.90;63.00
19248;DHT22;9758;48.640;8.148;2022-11-14T00:08:05;8.90;62.90
19248;DHT22;9758;48.640;8.148;2022-11-14T00:10:32;8.90;62.90
19248;DHT22;9758;48.640;8.148;2022-11-14T00:13:00;8.90;63.00
19248;DHT22;9758;48.640;8.148;2022-11-14T00:15:27;8.90;63.00
19248;DHT22;9758;48.640;8.148;2022-11-14T00:17:54;8.90;63.00
19248;DHT22;9758;48.640;8.148;2022-11-14T00:20:21;8.90;63.00
19248;DHT22;9758;48.640;8.148;2022-11-14T00:22:47;8.90;63.00
19248;DHT22;9758;48.640;8.148;2022-11-14T00:25:14;8.90;63.00
19248;DHT22;9758;48.640;8.148;2022-11-14T00:27:41;8.90;63.00
19248;DHT22;9758;48.640;8.148;2022-11-14T00:30:10;8.90;63.00
19248;DHT22;9758;48.640;8.148;2022-11-14T00:32:37;8.90;63.00
19248;DHT22;9758;48.640;8.148;2022-11-14T00:35:04;8.90;63.00
19248;DHT22;9758;48.640;8.148;2022-11-14T00:37:31;8.90;63.00
19248;DHT22;9758;48.640;8.148;2022-11-14T00:39:57;8.90;63.00
19248;DHT22;9758;48.640;8.148;2022-11-14T00:42:24;8.90;63.00
19248;DHT22;9758;48.640;8.148;2022-11-14T00:44:51;8.90;62.90
19248;DHT22;9758;48.640;8.148;2022-11-14T00:47:19;8.90;63.00
19248;DHT22;9758;48.640;8.148;2022-11-14T00:49:46;8.90;63.00
19248;DHT22;9758;48.640;8.148;2022-11-14T00:52:12;8.90;63.00
19248;DHT22;9758;48.640;8.148;2022-11-14T00:54:39;8.90;63.00
19248;DHT22;9758;48.640;8.148;2022-11-14T00:57:06;8.90;63.00
19248;DHT22;9758;48.640;8.148;2022-11-14T00:59:33;8.90;63.00
19248;DHT22;9758;48.640;8.148;2022-11-14T01:01:59;8.90;63.10
19248;DHT22;9758;48.640;8.148;2022-11-14T01:04:28;8.90;63.00
19248;DHT22;9758;48.640;8.148;2022-11-14T01:06:54;8.80;63.00
19248;DHT22;9758;48.640;8.148;2022-11-14T01:09:21;8.80;63.00
19248;DHT22;9758;48.640;8.148;2022-11-14T01:11:48;8.80;63.20
19248;DHT22;9758;48.640;8.148;2022-11-14T01:14:15;8.80;63.20
19248;DHT22;9758;48.640;8.148;2022-11-14T01:16:41;8.80;63.20
19248;DHT22;9758;48.640;8.148;2022-11-14T01:19:08;8.80;63.20
19248;DHT22;9758;48.640;8.148;2022-11-14T01:21:36;8.80;63.20
19248;DHT22;9758;48.640;8.148;2022-11-14T01:24:04;8.80;63.20
19248;DHT22;9758;48.640;8.148;2022-11-14T01:26:31;8.80;63.20
19248;DHT22;9758;48.640;8.148;2022-11-14T01:28:58;8.90;63.20
19248;DHT22;9758;48.640;8.148;2022-11-14T01:31:25;8.90;63.20
19248;DHT22;9758;48.640;8.148;2022-11-14T01:33:53;8.90;63.20
19248;DHT22;9758;48.640;8.148;2022-11-14T01:36:20;8.80;63.20
19248;DHT22;9758;48.640;8.148;2022-11-14T01:38:52;8.90;63.20
19248;DHT22;9758;48.640;8.148;2022-11-14T01:41:20;8.90;63.20
19248;DHT22;9758;48.640;8.148;2022-11-14T01:43:47;8.90;63.20
19248;DHT22;9758;48.640;8.148;2022-11-14T01:46:18;8.90;63.20
19248;DHT22;9758;48.640;8.148;2022-11-14T01:48:47;8.90;63.20
19248;DHT22;9758;48.640;8.148;2022-11-14T01:51:21;8.90;63.20
19248;DHT22;9758;48.640;8.148;2022-11-14T01:53:52;8.90;63.20
19248;DHT22;9758;48.640;8.148;2022-11-14T01:56:23;8.90;63.20
19248;DHT22;9758;48.640;8.148;2022-11-14T01:58:57;8.90;63.20
19248;DHT22;9758;48.640;8.148;2022-11-14T02:01:27;8.90;63.10
19248;DHT22;9758;48.640;8.148;2022-11-14T02:03:56;8.90;63.20
19248;DHT22;9758;48.640;8.148;2022-11-14T02:06:24;8.90;63.10
19248;DHT22;9758;48.640;8.148;2022-11-14T02:08:53;8.90;63.10
19248;DHT22;9758;48.640;8.148;2022-11-14T02:11:20;8.90;63.10
19248;DHT22;9758;48.640;8.148;2022-11-14T02:13:47;8.90;63.10
19248;DHT22;9758;48.640;8.148;2022-11-14T02:16:14;8.90;63.10
19248;DHT22;9758;48.640;8.148;2022-11-14T02:18:41;8.90;63.10
19248;DHT22;9758;48.640;8.148;2022-11-14T02:21:09;8.90;63.10
19248;DHT22;9758;48.640;8.148;2022-11-14T02:23:36;8.90;63.10
19248;DHT22;9758;48.640;8.148;2022-11-14T02:26:03;8.80;63.10
19248;DHT22;9758;48.640;8.148;2022-11-14T02:28:30;8.90;63.20
19248;DHT22;9758;48.640;8.148;2022-11-14T02:30:56;8.90;63.20
19248;DHT22;9758;48.640;8.148;2022-11-14T02:33:23;8.80;63.10
19248;DHT22;9758;48.640;8.148;2022-11-14T02:35:50;8.90;63.20
19248;DHT22;9758;48.640;8.148;2022-11-14T02:38:18;8.90;63.20
19248;DHT22;9758;48.640;8.148;2022-11-14T02:40:45;8.90;63.20
19248;DHT22;9758;48.640;8.148;2022-11-14T02:43:12;8.90;63.20
19248;DHT22;9758;48.640;8.148;2022-11-14T02:45:38;8.90;63.20
19248;DHT22;9758;48.640;8.148;2022-11-14T02:48:05;8.80;63.00
19248;DHT22;9758;48.640;8.148;2022-11-14T02:50:32;8.90;63.20
19248;DHT22;9758;48.640;8.148;2022-11-14T02:52:59;8.90;63.20
19248;DHT22;9758;48.640;8.148;2022-11-14T02:55:27;8.90;63.10
19248;DHT22;9758;48.640;8.148;2022-11-14T02:57:54;8.80;63.00
19248;DHT22;9758;48.640;8.148;2022-11-14T03:00:20;8.90;63.10
19248;DHT22;9758;48.640;8.148;2022-11-14T03:02:47;8.80;63.00
19248;DHT22;9758;48.640;8.148;2022-11-14T03:05:14;8.80;63.10
19248;DHT22;9758;48.640;8.148;2022-11-14T03:07:41;8.80;63.10
19248;DHT22;9758;48.640;8.148;2022-11-14T03:10:09;8.80;63.20
19248;DHT22;9758;48.640;8.148;2022-11-14T03:12:37;8.80;63.20
19248;DHT22;9758;48.640;8.148;2022-11-14T03:15:05;8.80;63.20
19248;DHT22;9758;48.640;8.148;2022-11-14T03:17:32;8.80;63.20
19248;DHT22;9758;48.640;8.148;2022-11-14T03:19:59;8.80;63.20
19248;DHT22;9758;48.640;8.148;2022-11-14T03:22:27;8.80;63.10
19248;DHT22;9758;48.640;8.148;2022-11-14T03:24:53;8.80;63.20
19248;DHT22;9758;48.640;8.148;2022-11-14T03:27:20;8.80;63.20
19248;DHT22;9758;48.640;8.148;2022-11-14T03:29:48;8.80;63.20
19248;DHT22;9758;48.640;8.148;2022-11-14T03:32:15;8.80;63.20
19248;DHT22;9758;48.640;8.148;2022-11-14T03:34:42;8.70;63.20
19248;DHT22;9758;48.640;8.148;2022-11-14T03:37:09;8.70;63.20
19248;DHT22;9758;48.640;8.148;2022-11-14T03:39:35;8.70;63.20
19248;DHT22;9758;48.640;8.148;2022-11-14T03:42:02;8.70;63.20
19248;DHT22;9758;48.640;8.148;2022-11-14T03:44:29;8.70;63.20
19248;DHT22;9758;48.640;8.148;2022-11-14T03:46:58;8.70;63.20
19248;DHT22;9758;48.640;8.148;2022-11-14T03:49:25;8.70;63.20
19248;DHT22;9758;48.640;8.148;2022-11-14T03:51:52;8.70;63.10
19248;DHT22;9758;48.640;8.148;2022-11-14T03:54:19;8.70;63.10
19248;DHT22;9758;48.640;8.148;2022-11-14T03:56:45;8.70;63.00
19248;DHT22;9758;48.640;8.148;2022-11-14T03:59:15;8.70;63.00
19248;DHT22;9758;48.640;8.148;2022-11-14T04:01:41;8.70;63.00
19248;DHT22;9758;48.640;8.148;2022-11-14T04:04:11;8.70;63.00
19248;DHT22;9758;48.640;8.148;2022-11-14T04:06:38;8.70;63.00
19248;DHT22;9758;48.640;8.148;2022-11-14T04:09:05;8.70;63.00
19248;DHT22;9758;48.640;8.148;2022-11-14T04:11:32;8.70;63.00
19248;DHT22;9758;48.640;8.148;2022-11-14T04:13:58;8.60;63.20
19248;DHT22;9758;48.640;8.148;2022-11-14T04:16:25;8.60;63.00
19248;DHT22;9758;48.640;8.148;2022-11-14T04:18:52;8.70;63.10
19248;DHT22;9758;48.640;8.148;2022-11-14T04:21:20;8.60;63.00
19248;DHT22;9758;48.640;8.148;2022-11-14T04:23:47;8.60;63.10
19248;DHT22;9758;48.640;8.148;2022-11-14T04:26:13;8.70;63.10
19248;DHT22;9758;48.640;8.148;2022-11-14T04:28:40;8.60;63.10
19248;DHT22;9758;48.640;8.148;2022-11-14T04:31:07;8.70;63.20
19248;DHT22;9758;48.640;8.148;2022-11-14T04:33:34;8.70;63.20
19248;DHT22;9758;48.640;8.148;2022-11-14T04:36:00;8.70;63.20
19248;DHT22;9758;48.640;8.148;2022-11-14T04:38:29;8.70;63.20
19248;DHT22;9758;48.640;8.148;2022-11-14T04:40:55;8.70;63.20
19248;DHT22;9758;48.640;8.148;2022-11-14T04:43:22;8.70;63.20
19248;DHT22;9758;48.640;8.148;2022-11-14T04:45:49;8.70;63.20
19248;DHT22;9758;48.640;8.148;2022-11-14T04:48:16;8.80;63.30
19248;DHT22;9758;48.640;8.148;2022-11-14T04:50:44;8.70;63.20
19248;DHT22;9758;48.640;8.148;2022-11-14T04:53:25;8.80;63.20
19248;DHT22;9758;48.640;8.148;2022-11-14T04:55:53;8.80;63.20
19248;DHT22;9758;48.640;8.148;2022-11-14T04:58:20;8.80;63.20
19248;DHT22;9758;48.640;8.148;2022-11-14T05:00:47;8.80;63.20
19248;DHT22;9758;48.640;8.148;2022-11-14T05:03:13;8.80;63.20
19248;DHT22;9758;48.640;8.148;2022-11-14T05:05:40;8.80;63.30
19248;DHT22;9758;48.640;8.148;2022-11-14T05:08:07;8.80;63.30
19248;DHT22;9758;48.640;8.148;2022-11-14T05:10:34;8.80;63.30
19248;DHT22;9758;48.640;8.148;2022-11-14T05:13:02;8.80;63.30
19248;DHT22;9758;48.640;8.148;2022-11-14T05:15:29;8.80;63.30
19248;DHT22;9758;48.640;8.148;2022-11-14T05:17:56;8.80;63.30
19248;DHT22;9758;48.640;8.148;2022-11-14T05:20:23;8.80;63.30
19248;DHT22;9758;48.640;8.148;2022-11-14T05:22:52;8.80;63.30
19248;DHT22;9758;48.640;8.148;2022-11-14T05:25:19;8.80;63.30
19248;DHT22;9758;48.640;8.148;2022-11-14T05:27:46;8.80;63.30
19248;DHT22;9758;48.640;8.148;2022-11-14T05:30:15;8.80;63.30
19248;DHT22;9758;48.640;8.148;2022-11-14T05:32:41;8.90;63.40
19248;DHT22;9758;48.640;8.148;2022-11-14T05:35:09;8.80;63.30
19248;DHT22;9758;48.640;8.148;2022-11-14T05:37:35;8.90;63.30
19248;DHT22;9758;48.640;8.148;2022-11-14T05:40:04;8.90;63.30
19248;DHT22;9758;48.640;8.148;2022-11-14T05:42:30;8.80;63.20
19248;DHT22;9758;48.640;8.148;2022-11-14T05:44:57;8.80;63.30
19248;DHT22;9758;48.640;8.148;2022-11-14T05:47:25;8.80;63.30
19248;DHT22;9758;48.640;8.148;2022-11-14T05:49:52;8.80;63.40
19248;DHT22;9758;48.640;8.148;2022-11-14T05:52:19;8.80;63.30
19248;DHT22;9758;48.640;8.148;2022-11-14T05:54:46;8.80;63.30
19248;DHT22;9758;48.640;8.148;2022-11-14T05:57:12;8.80;63.40
19248;DHT22;9758;48.640;8.148;2022-11-14T05:59:39;8.80;63.40
19248;DHT22;9758;48.640;8.148;2022-11-14T06:02:06;8.80;63.40
19248;DHT22;9758;48.640;8.148;2022-11-14T06:04:34;8.90;63.40
19248;DHT22;9758;48.640;8.148;2022-11-14T06:07:01;8.80;63.30
19248;DHT22;9758;48.640;8.148;2022-11-14T06:09:27;8.80;63.40
19248;DHT22;9758;48.640;8.148;2022-11-14T06:11:54;8.80;63.50
19248;DHT22;9758;48.640;8.148;2022-11-14T06:14:21;8.80;63.50
19248;DHT22;9758;48.640;8.148;2022-11-14T06:16:48;8.80;63.50
19248;DHT22;9758;48.640;8.148;2022-11-14T06:19:14;8.80;63.50
19248;DHT22;9758;48.640;8.148;2022-11-14T06:21:50;8.80;63.50
19248;DHT22;9758;48.640;8.148;2022-11-14T06:24:17;8.90;63.60
19248;DHT22;9758;48.640;8.148;2022-11-14T06:26:44;8.80;63.50
19248;DHT22;9758;48.640;8.148;2022-11-14T06:29:11;8.80;63.50
19248;DHT22;9758;48.640;8.148;2022-11-14T06:31:38;8.90;63.50
19248;DHT22;9758;48.640;8.148;2022-11-14T06:34:05;8.90;63.50
19248;DHT22;9758;48.640;8.148;2022-11-14T06:36:32;8.90;63.50
19248;DHT22;9758;48.640;8.148;2022-11-14T06:39:00;8.90;63.50
19248;DHT22;9758;48.640;8.148;2022-11-14T06:41:26;8.90;63.50
19248;DHT22;9758;48.640;8.148;2022-11-14T06:43:53;8.90;63.50
19248;DHT22;9758;48.640;8.148;2022-11-14T06:46:21;8.90;63.50
19248;DHT22;9758;48.640;8.148;2022-11-14T06:48:49;8.90;63.50
19248;DHT22;9758;48.640;8.148;2022-11-14T06:51:16;8.90;63.50
19248;DHT22;9758;48.640;8.148;2022-11-14T06:53:44;8.80;63.40
19248;DHT22;9758;48.640;8.148;2022-11-14T06:56:13;8.80;63.60
19248;DHT22;9758;48.640;8.148;2022-11-14T06:58:42;8.90;63.60
19248;DHT22;9758;48.640;8.148;2022-11-14T07:01:12;8.90;63.60
19248;DHT22;9758;48.640;8.148;2022-11-14T07:03:40;8.90;63.60
19248;DHT22;9758;48.640;8.148;2022-11-14T07:06:08;8.80;63.50
19248;DHT22;9758;48.640;8.148;2022-11-14T07:08:35;8.90;63.60
19248;DHT22;9758;48.640;8.148;2022-11-14T07:11:03;8.90;63.60
19248;DHT22;9758;48.640;8.148;2022-11-14T07:13:32;8.90;63.60
19248;DHT22;9758;48.640;8.148;2022-11-14T07:16:00;8.90;63.60
19248;DHT22;9758;48.640;8.148;2022-11-14T07:18:28;8.90;63.60
19248;DHT22;9758;48.640;8.148;2022-11-14T07:20:59;8.90;63.60
19248;DHT22;9758;48.640;8.148;2022-11-14T07:23:26;9.00;63.70
19248;DHT22;9758;48.640;8.148;2022-11-14T07:25:53;9.00;63.70
19248;DHT22;9758;48.640;8.148;2022-11-14T07:28:20;9.00;63.60
19248;DHT22;9758;48.640;8.148;2022-11-14T07:30:48;9.10;63.70
19248;DHT22;9758;48.640;8.148;2022-11-14T07:33:15;9.10;63.70
19248;DHT22;9758;48.640;8.148;2022-11-14T07:35:42;9.10;63.70
19248;DHT22;9758;48.640;8.148;2022-11-14T07:38:09;9.10;63.60
19248;DHT22;9758;48.640;8.148;2022-11-14T07:40:35;9.10;63.60
19248;DHT22;9758;48.640;8.148;2022-11-14T07:43:03;9.20;63.60
19248;DHT22;9758;48.640;8.148;2022-11-14T07:45:29;9.20;63.60
19248;DHT22;9758;48.640;8.148;2022-11-14T07:47:59;9.20;63.60
19248;DHT22;9758;48.640;8.148;2022-11-14T07:50:27;9.20;63.60
19248;DHT22;9758;48.640;8.148;2022-11-14T07:52:55;9.30;63.80
19248;DHT22;9758;48.640;8.148;2022-11-14T07:55:23;9.30;63.70
19248;DHT22;9758;48.640;8.148;2022-11-14T07:57:51;9.30;63.60
19248;DHT22;9758;48.640;8.148;2022-11-14T08:00:19;9.30;63.60
19248;DHT22;9758;48.640;8.148;2022-11-14T08:02:46;9.40;63.70
19248;DHT22;9758;48.640;8.148;2022-11-14T08:05:14;9.40;63.70
19248;DHT22;9758;48.640;8.148;2022-11-14T08:07:41;9.50;63.80
19248;DHT22;9758;48.640;8.148;2022-11-14T08:10:09;9.50;63.80
19248;DHT22;9758;48.640;8.148;2022-11-14T08:12:57;9.50;63.80
19248;DHT22;9758;48.640;8.148;2022-11-14T08:15:25;9.60;63.80
19248;DHT22;9758;48.640;8.148;2022-11-14T08:17:52;9.60;64.40
19248;DHT22;9758;48.640;8.148;2022-11-14T08:20:20;9.60;63.60
19248;DHT22;9758;48.640;8.148;2022-11-14T08:22:46;9.70;63.60
19248;DHT22;9758;48.640;8.148;2022-11-14T08:25:13;9.70;63.60
19248;DHT22;9758;48.640;8.148;2022-11-14T08:27:40;9.70;63.60
19248;DHT22;9758;48.640;8.148;2022-11-14T08:30:08;9.70;63.60
19248;DHT22;9758;48.640;8.148;2022-11-14T08:32:35;9.70;63.50
19248;DHT22;9758;48.640;8.148;2022-11-14T08:35:02;9.60;63.60
19248;DHT22;9758;48.640;8.148;2022-11-14T08:37:30;9.60;63.80
19248;DHT22;9758;48.640;8.148;2022-11-14T08:39:57;9.70;63.90
19248;DHT22;9758;48.640;8.148;2022-11-14T08:42:24;9.70;63.90
19248;DHT22;9758;48.640;8.148;2022-11-14T08:44:50;9.70;64.10
19248;DHT22;9758;48.640;8.148;2022-11-14T08:47:17;9.80;64.10
19248;DHT22;9758;48.640;8.148;2022-11-14T08:49:44;9.90;64.10
19248;DHT22;9758;48.640;8.148;2022-11-14T08:52:11;10.00;64.10
19248;DHT22;9758;48.640;8.148;2022-11-14T08:54:39;10.00;63.90
19248;DHT22;9758;48.640;8.148;2022-11-14T08:57:05;10.10;63.70
19248;DHT22;9758;48.640;8.148;2022-11-14T08:59:32;10.10;63.70
19248;DHT22;9758;48.640;8.148;2022-11-14T09:01:59;10.10;63.70
19248;DHT22;9758;48.640;8.148;2022-11-14T09:04:26;10.10;63.70
19248;DHT22;9758;48.640;8.148;2022-11-14T09:06:53;10.10;63.70
19248;DHT22;9758;48.640;8.148;2022-11-14T09:09:19;10.10;63.60
19248;DHT22;9758;48.640;8.148;2022-11-14T09:11:47;10.10;63.60
19248;DHT22;9758;48.640;8.148;2022-11-14T09:14:14;10.20;63.60
19248;DHT22;9758;48.640;8.148;2022-11-14T09:16:41;10.20;63.70
19248;DHT22;9758;48.640;8.148;2022-11-14T09:19:08;10.20;63.60
19248;DHT22;9758;48.640;8.148;2022-11-14T09:21:35;10.20;63.60
19248;DHT22;9758;48.640;8.148;2022-11-14T09:24:02;10.30;63.60
19248;DHT22;9758;48.640;8.148;2022-11-14T09:26:28;10.30;63.50
19248;DHT22;9758;48.640;8.148;2022-11-14T09:28:57;10.30;63.50
19248;DHT22;9758;48.640;8.148;2022-11-14T09:31:24;10.30;63.50
19248;DHT22;9758;48.640;8.148;2022-11-14T09:34:08;10.40;63.60
19248;DHT22;9758;48.640;8.148;2022-11-14T09:36:35;10.40;63.50
19248;DHT22;9758;48.640;8.148;2022-11-14T09:39:01;10.40;63.50
19248;DHT22;9758;48.640;8.148;2022-11-14T09:41:37;10.40;63.50
19248;DHT22;9758;48.640;8.148;2022-11-14T09:44:27;10.40;63.50
19248;DHT22;9758;48.640;8.148;2022-11-14T09:47:01;10.40;63.40
19248;DHT22;9758;48.640;8.148;2022-11-14T09:49:33;10.30;64.20
19248;DHT22;9758;48.640;8.148;2022-11-14T09:52:07;10.30;63.50
19248;DHT22;9758;48.640;8.148;2022-11-14T09:54:39;10.40;63.70
19248;DHT22;9758;48.640;8.148;2022-11-14T09:57:14;10.40;63.60
19248;DHT22;9758;48.640;8.148;2022-11-14T09:59:43;10.40;63.60
19248;DHT22;9758;48.640;8.148;2022-11-14T10:02:22;10.40;63.60
19248;DHT22;9758;48.640;8.148;2022-11-14T10:05:03;10.40;63.50
19248;DHT22;9758;48.640;8.148;2022-11-14T10:07:42;10.40;63.50
19248;DHT22;9758;48.640;8.148;2022-11-14T10:10:20;10.40;63.50
19248;DHT22;9758;48.640;8.148;2022-11-14T10:12:57;10.40;63.60
19248;DHT22;9758;48.640;8.148;2022-11-14T10:15:30;10.40;63.70
19248;DHT22;9758;48.640;8.148;2022-11-14T10:18:19;10.40;63.70
19248;DHT22;9758;48.640;8.148;2022-11-14T10:20:53;10.50;63.80
19248;DHT22;9758;48.640;8.148;2022-11-14T10:23:28;10.50;63.50
19248;DHT22;9758;48.640;8.148;2022-11-14T10:26:07;10.50;63.50
19248;DHT22;9758;48.640;8.148;2022-11-14T10:28:45;10.40;63.50
19248;DHT22;9758;48.640;8.148;2022-11-14T10:31:22;10.40;63.50
19248;DHT22;9758;48.640;8.148;2022-11-14T10:33:58;10.40;63.50
19248;DHT22;9758;48.640;8.148;2022-11-14T10:36:47;10.40;63.50
19248;DHT22;9758;48.640;8.148;2022-11-14T10:39:18;10.40;63.50
19248;DHT22;9758;48.640;8.148;2022-11-14T10:41:47;10.40;63.50
19248;DHT22;9758;48.640;8.148;2022-11-14T10:44:19;10.40;63.50
19248;DHT22;9758;48.640;8.148;2022-11-14T10:46:53;10.40;63.40
19248;DHT22;9758;48.640;8.148;2022-11-14T10:49:23;10.40;63.40
19248;DHT22;9758;48.640;8.148;2022-11-14T10:51:51;10.40;63.50
19248;DHT22;9758;48.640;8.148;2022-11-14T10:54:21;10.40;63.50
19248;DHT22;9758;48.640;8.148;2022-11-14T10:56:51;10.40;63.50
19248;DHT22;9758;48.640;8.148;2022-11-14T10:59:19;10.40;63.50
19248;DHT22;9758;48.640;8.148;2022-11-14T11:01:55;10.40;63.50
19248;DHT22;9758;48.640;8.148;2022-11-14T11:04:25;10.40;63.50
19248;DHT22;9758;48.640;8.148;2022-11-14T11:06:54;10.40;63.40
19248;DHT22;9758;48.640;8.148;2022-11-14T11:09:22;10.40;63.50
19248;DHT22;9758;48.640;8.148;2022-11-14T11:12:08;10.40;63.60
19248;DHT22;9758;48.640;8.148;2022-11-14T11:14:40;10.40;63.60
19248;DHT22;9758;48.640;8.148;2022-11-14T11:17:21;10.40;63.50
19248;DHT22;9758;48.640;8.148;2022-11-14T11:19:49;10.40;63.70
19248;DHT22;9758;48.640;8.148;2022-11-14T11:22:34;10.40;63.80
19248;DHT22;9758;48.640;8.148;2022-11-14T11:25:01;10.40;63.80
19248;DHT22;9758;48.640;8.148;2022-11-14T11:27:29;10.50;63.90
19248;DHT22;9758;48.640;8.148;2022-11-14T11:30:08;10.50;63.90
19248;DHT22;9758;48.640;8.148;2022-11-14T11:32:43;10.60;64.00
19248;DHT22;9758;48.640;8.148;2022-11-14T11:35:12;10.70;64.00
19248;DHT22;9758;48.640;8.148;2022-11-14T11:37:43;10.80;64.10
19248;DHT22;9758;48.640;8.148;2022-11-14T11:40:17;10.90;64.00
19248;DHT22;9758;48.640;8.148;2022-11-14T11:42:50;11.00;64.10
19248;DHT22;9758;48.640;8.148;2022-11-14T11:45:19;11.20;64.10
19248;DHT22;9758;48.640;8.148;2022-11-14T11:47:54;11.30;64.10
19248;DHT22;9758;48.640;8.148;2022-11-14T11:50:21;11.40;64.00
19248;DHT22;9758;48.640;8.148;2022-11-14T11:52:59;11.50;63.70
19248;DHT22;9758;48.640;8.148;2022-11-14T11:55:31;11.60;63.70
19248;DHT22;9758;48.640;8.148;2022-11-14T11:58:03;11.70;63.70
19248;DHT22;9758;48.640;8.148;2022-11-14T12:00:31;11.80;63.70
19248;DHT22;9758;48.640;8.148;2022-11-14T12:03:00;11.90;63.70
19248;DHT22;9758;48.640;8.148;2022-11-14T12:05:34;12.10;63.80
19248;DHT22;9758;48.640;8.148;2022-11-14T12:08:10;12.20;64.60
19248;DHT22;9758;48.640;8.148;2022-11-14T12:10:40;12.40;63.90
19248;DHT22;9758;48.640;8.148;2022-11-14T12:13:31;12.70;63.80
19248;DHT22;9758;48.640;8.148;2022-11-14T12:16:20;12.90;63.50
19248;DHT22;9758;48.640;8.148;2022-11-14T12:19:09;13.10;63.30
19248;DHT22;9758;48.640;8.148;2022-11-14T12:27:43;13.70;62.80
19248;DHT22;9758;48.640;8.148;2022-11-14T12:30:17;13.80;62.50
19248;DHT22;9758;48.640;8.148;2022-11-14T12:32:48;14.00;62.30
19248;DHT22;9758;48.640;8.148;2022-11-14T12:35:21;14.10;62.20
19248;DHT22;9758;48.640;8.148;2022-11-14T12:37:51;14.20;61.90
19248;DHT22;9758;48.640;8.148;2022-11-14T12:40:26;14.30;62.00
19248;DHT22;9758;48.640;8.148;2022-11-14T12:42:54;14.30;61.80
19248;DHT22;9758;48.640;8.148;2022-11-14T12:45:56;14.40;61.90
19248;DHT22;9758;48.640;8.148;2022-11-14T12:48:30;14.50;61.70
19248;DHT22;9758;48.640;8.148;2022-11-14T12:50:59;14.60;61.40
19248;DHT22;9758;48.640;8.148;2022-11-14T12:53:43;14.60;61.40
19248;DHT22;9758;48.640;8.148;2022-11-14T12:56:41;14.70;61.40
19248;DHT22;9758;48.640;8.148;2022-11-14T12:59:34;14.70;61.40
19248;DHT22;9758;48.640;8.148;2022-11-14T13:05:36;14.80;61.10
19248;DHT22;9758;48.640;8.148;2022-11-14T13:08:21;14.80;61.10
19248;DHT22;9758;48.640;8.148;2022-11-14T13:10:54;14.90;61.20
19248;DHT22;9758;48.640;8.148;2022-11-14T13:13:21;14.90;60.70
19248;DHT22;9758;48.640;8.148;2022-11-14T13:16:22;15.00;61.10
19248;DHT22;9758;48.640;8.148;2022-11-14T13:19:12;15.00;61.00
19248;DHT22;9758;48.640;8.148;2022-11-14T13:22:35;15.00;60.50
19248;DHT22;9758;48.640;8.148;2022-11-14T13:25:22;15.10;60.50
19248;DHT22;9758;48.640;8.148;2022-11-14T13:27:49;15.10;60.40
19248;DHT22;9758;48.640;8.148;2022-11-14T13:33:39;15.10;60.40
19248;DHT22;9758;48.640;8.148;2022-11-14T13:36:08;15.20;60.20
19248;DHT22;9758;48.640;8.148;2022-11-14T13:39:09;15.20;60.20
19248;DHT22;9758;48.640;8.148;2022-11-14T13:48:31;15.30;60.10
19248;DHT22;9758;48.640;8.148;2022-11-14T13:51:04;15.30;59.80
19248;DHT22;9758;48.640;8.148;2022-11-14T13:53:32;15.30;60.10
19248;DHT22;9758;48.640;8.148;2022-11-14T13:56:07;15.30;60.00
19248;DHT22;9758;48.640;8.148;2022-11-14T13:59:06;15.40;60.00
19248;DHT22;9758;48.640;8.148;2022-11-14T14:01:50;15.40;59.80
19248;DHT22;9758;48.640;8.148;2022-11-14T14:04:35;15.40;59.90
19248;DHT22;9758;48.640;8.148;2022-11-14T14:07:12;15.50;59.80
19248;DHT22;9758;48.640;8.148;2022-11-14T14:09:49;15.50;59.90
19248;DHT22;9758;48.640;8.148;2022-11-14T14:12:40;15.50;59.80
19248;DHT22;9758;48.640;8.148;2022-11-14T14:15:19;15.50;59.80
19248;DHT22;9758;48.640;8.148;2022-11-14T14:17:58;15.60;59.90
19248;DHT22;9758;48.640;8.148;2022-11-14T14:20:34;15.60;59.90
19248;DHT22;9758;48.640;8.148;2022-11-14T14:23:14;15.60;59.70
19248;DHT22;9758;48.640;8.148;2022-11-14T14:25:50;15.60;59.60
19248;DHT22;9758;48.640;8.148;2022-11-14T14:28:27;15.60;59.60
19248;DHT22;9758;48.640;8.148;2022-11-14T14:31:03;15.70;59.60
19248;DHT22;9758;48.640;8.148;2022-11-14T14:33:46;15.60;59.50
19248;DHT22;9758;48.640;8.148;2022-11-14T14:36:17;15.70;59.60
19248;DHT22;9758;48.640;8.148;2022-11-14T14:38:45;15.70;59.10
19248;DHT22;9758;48.640;8.148;2022-11-14T14:41:13;15.70;59.30
19248;DHT22;9758;48.640;8.148;2022-11-14T14:43:49;15.70;59.30
19248;DHT22;9758;48.640;8.148;2022-11-14T14:46:25;15.70;59.40
19248;DHT22;9758;48.640;8.148;2022-11-14T14:48:55;15.70;59.30
19248;DHT22;9758;48.640;8.148;2022-11-14T14:51:32;15.80;59.40
19248;DHT22;9758;48.640;8.148;2022-11-14T14:53:59;15.70;59.30
19248;DHT22;9758;48.640;8.148;2022-11-14T14:56:27;15.70;59.20
19248;DHT22;9758;48.640;8.148;2022-11-14T14:58:54;15.70;59.10
19248;DHT22;9758;48.640;8.148;2022-11-14T15:01:23;15.70;59.30
19248;DHT22;9758;48.640;8.148;2022-11-14T15:03:56;15.60;58.90
19248;DHT22;9758;48.640;8.148;2022-11-14T15:06:28;15.60;59.20
19248;DHT22;9758;48.640;8.148;2022-11-14T15:08:56;15.50;59.00
19248;DHT22;9758;48.640;8.148;2022-11-14T15:11:24;15.40;59.30
19248;DHT22;9758;48.640;8.148;2022-11-14T15:13:54;15.40;59.30
19248;DHT22;9758;48.640;8.148;2022-11-14T15:16:22;15.30;59.30
19248;DHT22;9758;48.640;8.148;2022-11-14T15:19:11;15.30;59.20
19248;DHT22;9758;48.640;8.148;2022-11-14T15:21:39;15.30;59.10
19248;DHT22;9758;48.640;8.148;2022-11-14T15:24:14;15.20;59.10
19248;DHT22;9758;48.640;8.148;2022-11-14T15:26:42;15.20;59.20
19248;DHT22;9758;48.640;8.148;2022-11-14T15:29:15;15.20;59.30
19248;DHT22;9758;48.640;8.148;2022-11-14T15:31:45;15.10;59.30
19248;DHT22;9758;48.640;8.148;2022-11-14T15:34:27;15.10;59.20
19248;DHT22;9758;48.640;8.148;2022-11-14T15:39:47;15.00;59.20
19248;DHT22;9758;48.640;8.148;2022-11-14T15:42:16;15.00;59.30
19248;DHT22;9758;48.640;8.148;2022-11-14T15:44:44;15.00;59.20
19248;DHT22;9758;48.640;8.148;2022-11-14T15:47:12;15.00;59.20
19248;DHT22;9758;48.640;8.148;2022-11-14T15:49:59;15.00;59.40
19248;DHT22;9758;48.640;8.148;2022-11-14T15:52:31;15.00;59.00
19248;DHT22;9758;48.640;8.148;2022-11-14T15:54:59;15.00;59.20
19248;DHT22;9758;48.640;8.148;2022-11-14T15:57:26;15.00;59.10
19248;DHT22;9758;48.640;8.148;2022-11-14T15:59:55;15.00;59.30
19248;DHT22;9758;48.640;8.148;2022-11-14T16:02:44;15.00;59.20
19248;DHT22;9758;48.640;8.148;2022-11-14T16:05:13;14.90;59.10
19248;DHT22;9758;48.640;8.148;2022-11-14T16:07:41;15.00;59.20
19248;DHT22;9758;48.640;8.148;2022-11-14T16:10:13;15.00;59.30
19248;DHT22;9758;48.640;8.148;2022-11-14T16:12:40;15.00;59.10
19248;DHT22;9758;48.640;8.148;2022-11-14T16:15:08;15.10;59.30
19248;DHT22;9758;48.640;8.148;2022-11-14T16:17:36;15.10;59.30
19248;DHT22;9758;48.640;8.148;2022-11-14T16:20:04;15.10;59.20
19248;DHT22;9758;48.640;8.148;2022-11-14T16:22:32;15.10;59.20
19248;DHT22;9758;48.640;8.148;2022-11-14T16:24:59;15.10;59.30
19248;DHT22;9758;48.640;8.148;2022-11-14T16:27:26;15.20;59.10
19248;DHT22;9758;48.640;8.148;2022-11-14T16:29:53;15.20;59.20
19248;DHT22;9758;48.640;8.148;2022-11-14T16:32:20;15.20;59.30
19248;DHT22;9758;48.640;8.148;2022-11-14T16:34:51;15.20;59.00
19248;DHT22;9758;48.640;8.148;2022-11-14T16:37:17;15.20;58.90